Time;durP1;ratioP1;P1;durP2;ratioP2;P2;SDS_P1;SDS_P2;PMS_P1;PMS_P2;Temp;Humidity;BMP_temperature;BMP_pressure;BME280_temperature;BME280_humidity;BME280_pressure;Samples;Min_cycle;Max_cycle;Signal;HPM_P1;HPM_P2
2022/03/13 00:01:51;;;;;;;11.73;7.88;;;;;;;;;;5088125;28;20237;-21
2022/03/13 00:04:19;;;;;;;20.65;7.75;;;;;;;;;;5086831;28;20279;-21
2022/03/13 00:06:46;;;;;;;15.10;7.35;;;;;;;;;;5088360;28;20243;-21
2022/03/13 00:09:13;;;;;;;13.40;7.75;;;;;;;;;;5084249;28;20225;-21
2022/03/13 00:11:41;;;;;;;14.20;7.43;;;;;;;;;;5085373;28;20248;-22
2022/03/13 00:14:10;;;;;;;13.77;6.93;;;;;;;;;;5089650;28;20229;-21
2022/03/13 00:16:37;;;;;;;13.32;7.70;;;;;;;;;;5091292;28;20225;-21
2022/03/13 00:19:06;;;;;;;12.63;7.18;;;;;;;;;;5092958;28;20231;-21
2022/03/13 00:21:39;;;;;;;10.95;7.93;;;;;;;;;;5091194;28;20244;-21
2022/03/13 00:24:06;;;;;;;11.02;7.80;;;;;;;;;;5091390;28;20258;-21
2022/03/13 00:26:35;;;;;;;11.52;7.30;;;;;;;;;;5077201;28;20369;-20
2022/03/13 00:29:02;;;;;;;9.93;7.32;;;;;;;;;;5072120;28;20700;-21
2022/03/13 00:31:29;;;;;;;11.88;7.07;;;;;;;;;;5095517;28;20244;-21
2022/03/13 00:33:56;;;;;;;13.80;7.57;;;;;;;;;;5096602;28;20235;-21
2022/03/13 00:36:24;;;;;;;12.27;7.20;;;;;;;;;;5091941;28;20229;-21
2022/03/13 00:38:51;;;;;;;10.05;7.15;;;;;;;;;;5092727;28;20232;-20
2022/03/13 00:41:18;;;;;;;10.38;7.18;;;;;;;;;;5092166;28;20248;-21
2022/03/13 00:43:45;;;;;;;12.32;7.28;;;;;;;;;;5090276;28;20232;-21
2022/03/13 00:46:12;;;;;;;11.95;7.07;;;;;;;;;;5083189;28;20318;-21
2022/03/13 00:48:41;;;;;;;11.10;7.63;;;;;;;;;;5071875;28;20291;-21
2022/03/13 00:51:09;;;;;;;11.75;7.03;;;;;;;;;;5077605;28;20328;-21
2022/03/13 00:53:36;;;;;;;11.07;6.97;;;;;;;;;;5092384;28;20231;-21
2022/03/13 00:56:03;;;;;;;11.43;7.18;;;;;;;;;;5090184;28;20240;-20
2022/03/13 00:58:30;;;;;;;12.73;7.40;;;;;;;;;;5092320;28;20233;-21
2022/03/13 01:00:57;;;;;;;9.68;7.32;;;;;;;;;;5086303;28;20239;-21
2022/03/13 01:03:24;;;;;;;12.43;7.75;;;;;;;;;;5072026;28;20245;-21
2022/03/13 01:05:51;;;;;;;9.00;6.65;;;;;;;;;;5083532;28;20725;-21
2022/03/13 01:08:19;;;;;;;9.05;7.05;;;;;;;;;;5089400;28;20232;-20
2022/03/13 01:10:46;;;;;;;10.60;7.78;;;;;;;;;;5087165;28;20236;-20
2022/03/13 01:13:13;;;;;;;9.30;7.38;;;;;;;;;;5081754;28;20616;-20
2022/03/13 01:15:47;;;;;;;9.18;7.43;;;;;;;;;;5086014;28;20240;-21
2022/03/13 01:18:14;;;;;;;10.02;7.65;;;;;;;;;;5071620;28;20225;-21
2022/03/13 01:20:41;;;;;;;11.57;7.75;;;;;;;;;;5078657;28;20236;-20
2022/03/13 01:23:08;;;;;;;11.80;7.75;;;;;;;;;;5090746;28;20245;-21
2022/03/13 01:25:35;;;;;;;8.88;7.43;;;;;;;;;;5085444;28;20352;-20
2022/03/13 01:28:02;;;;;;;13.07;7.65;;;;;;;;;;5087110;28;20710;-20
2022/03/13 01:30:29;;;;;;;11.82;7.30;;;;;;;;;;5094971;28;20737;-20
2022/03/13 01:32:56;;;;;;;9.32;7.22;;;;;;;;;;5107702;28;20224;-21
2022/03/13 01:35:23;;;;;;;8.95;6.90;;;;;;;;;;5091697;28;20220;-21
2022/03/13 01:37:50;;;;;;;10.60;7.60;;;;;;;;;;5089265;28;20239;-20
2022/03/13 01:40:17;;;;;;;9.70;7.15;;;;;;;;;;5091451;28;20783;-21
2022/03/13 01:42:44;;;;;;;10.57;7.47;;;;;;;;;;5091701;28;21033;-20
2022/03/13 01:45:11;;;;;;;8.90;7.28;;;;;;;;;;5090306;28;20229;-21
2022/03/13 01:47:38;;;;;;;10.73;6.93;;;;;;;;;;5112024;28;20951;-20
2022/03/13 01:50:06;;;;;;;11.30;6.70;;;;;;;;;;5091570;28;20235;-20
2022/03/13 01:52:33;;;;;;;13.05;6.43;;;;;;;;;;5071587;28;20290;-20
2022/03/13 01:55:00;;;;;;;7.38;6.47;;;;;;;;;;5071608;28;20225;-21
2022/03/13 01:57:27;;;;;;;9.00;6.45;;;;;;;;;;5071551;28;20284;-21
2022/03/13 01:59:54;;;;;;;8.68;6.50;;;;;;;;;;5077167;28;20695;-21
2022/03/13 02:02:21;;;;;;;9.20;7.45;;;;;;;;;;5075094;28;20999;-21
2022/03/13 02:04:48;;;;;;;7.85;6.63;;;;;;;;;;5070988;28;20237;-21
2022/03/13 02:07:15;;;;;;;8.18;7.00;;;;;;;;;;5091214;28;20236;-20
2022/03/13 02:09:43;;;;;;;8.27;6.82;;;;;;;;;;5090895;28;20228;-21
2022/03/13 02:12:09;;;;;;;8.80;6.57;;;;;;;;;;5087345;28;20246;-21
2022/03/13 02:14:36;;;;;;;9.05;7.25;;;;;;;;;;5091337;28;20229;-21
2022/03/13 02:17:04;;;;;;;6.90;6.18;;;;;;;;;;5105606;28;20232;-21
2022/03/13 02:19:31;;;;;;;10.23;6.72;;;;;;;;;;5110861;27;20228;-21
2022/03/13 02:21:58;;;;;;;8.32;6.32;;;;;;;;;;5078335;28;20241;-20
2022/03/13 02:24:25;;;;;;;9.02;6.95;;;;;;;;;;5090712;28;20240;-20
2022/03/13 02:26:52;;;;;;;7.93;6.60;;;;;;;;;;5073769;28;20233;-21
2022/03/13 02:29:18;;;;;;;8.38;6.85;;;;;;;;;;5071087;28;20233;-21
2022/03/13 02:31:45;;;;;;;7.63;6.68;;;;;;;;;;5097320;28;20232;-21
2022/03/13 02:34:13;;;;;;;7.38;6.00;;;;;;;;;;5073565;28;20734;-21
2022/03/13 02:36:40;;;;;;;8.82;6.85;;;;;;;;;;5073976;28;20237;-21
2022/03/13 02:39:07;;;;;;;9.35;6.60;;;;;;;;;;5074142;28;20233;-21
2022/03/13 02:41:34;;;;;;;9.10;6.20;;;;;;;;;;5087898;28;20245;-21
2022/03/13 02:44:01;;;;;;;8.55;6.47;;;;;;;;;;5075295;28;20229;-21
2022/03/13 02:46:28;;;;;;;8.90;6.88;;;;;;;;;;5105940;28;20228;-20
2022/03/13 02:48:55;;;;;;;9.35;6.47;;;;;;;;;;5077470;28;20241;-21
2022/03/13 02:51:22;;;;;;;7.97;6.78;;;;;;;;;;5093956;28;20233;-21
2022/03/13 02:53:49;;;;;;;9.57;6.85;;;;;;;;;;5094128;28;20255;-21
2022/03/13 02:56:15;;;;;;;9.57;7.03;;;;;;;;;;5081931;28;20225;-21
2022/03/13 02:58:42;;;;;;;9.02;6.95;;;;;;;;;;5073403;28;20225;-21
2022/03/13 03:01:09;;;;;;;9.20;6.35;;;;;;;;;;5078536;28;20237;-21
2022/03/13 03:03:37;;;;;;;9.13;7.10;;;;;;;;;;5073805;28;20230;-21
2022/03/13 03:06:04;;;;;;;8.05;6.70;;;;;;;;;;5081251;28;20231;-21
2022/03/13 03:08:31;;;;;;;9.10;7.25;;;;;;;;;;5094194;28;20778;-21
2022/03/13 03:10:58;;;;;;;8.32;6.53;;;;;;;;;;5093414;28;20842;-21
2022/03/13 03:13:25;;;;;;;9.38;6.63;;;;;;;;;;5093943;28;20256;-21
2022/03/13 03:15:52;;;;;;;9.23;7.03;;;;;;;;;;5099657;28;20236;-21
2022/03/13 03:18:19;;;;;;;8.88;7.07;;;;;;;;;;5094338;28;20236;-21
2022/03/13 03:20:46;;;;;;;10.02;6.53;;;;;;;;;;5075488;28;20615;-20
2022/03/13 03:23:13;;;;;;;8.75;6.90;;;;;;;;;;5101373;22;20267;-20
2022/03/13 03:25:40;;;;;;;8.98;7.13;;;;;;;;;;5086733;28;20237;-21
2022/03/13 03:28:12;;;;;;;10.73;6.70;;;;;;;;;;5088001;28;20315;-19
2022/03/13 03:30:39;;;;;;;10.75;6.97;;;;;;;;;;5092365;28;20231;-19
2022/03/13 03:33:07;;;;;;;9.05;6.85;;;;;;;;;;5094235;28;20243;-20
2022/03/13 03:35:34;;;;;;;9.40;6.80;;;;;;;;;;5094504;28;20236;-20
2022/03/13 03:38:01;;;;;;;8.75;6.65;;;;;;;;;;5094456;28;20696;-20
2022/03/13 03:40:29;;;;;;;8.50;6.82;;;;;;;;;;5080995;28;20312;-20
2022/03/13 03:42:56;;;;;;;9.18;7.15;;;;;;;;;;5092277;28;20213;-19
2022/03/13 03:45:23;;;;;;;11.77;6.57;;;;;;;;;;5090766;28;20216;-19
2022/03/13 03:47:50;;;;;;;11.65;7.32;;;;;;;;;;5072069;28;20239;-19
2022/03/13 03:50:18;;;;;;;8.13;6.90;;;;;;;;;;5087050;28;20235;-20
2022/03/13 03:52:45;;;;;;;10.18;7.03;;;;;;;;;;5091516;28;20244;-20
2022/03/13 03:55:12;;;;;;;9.23;7.85;;;;;;;;;;5073160;28;20233;-20
2022/03/13 03:57:39;;;;;;;8.98;7.18;;;;;;;;;;5087364;28;20266;-19
2022/03/13 04:00:06;;;;;;;8.30;6.70;;;;;;;;;;5092562;28;20221;-20
2022/03/13 04:02:33;;;;;;;8.85;7.60;;;;;;;;;;5073937;28;20229;-20
2022/03/13 04:05:01;;;;;;;9.25;7.35;;;;;;;;;;5072970;28;20217;-20
2022/03/13 04:07:27;;;;;;;10.55;8.18;;;;;;;;;;5073104;28;20241;-20
2022/03/13 04:09:55;;;;;;;9.35;6.75;;;;;;;;;;5073836;28;20233;-20
2022/03/13 04:12:22;;;;;;;9.27;7.28;;;;;;;;;;5086435;28;20239;-19
2022/03/13 04:14:49;;;;;;;8.63;7.45;;;;;;;;;;5092213;28;20224;-20
2022/03/13 04:17:16;;;;;;;9.40;6.88;;;;;;;;;;5091275;28;20637;-20
2022/03/13 04:19:43;;;;;;;9.52;7.40;;;;;;;;;;5092872;28;20227;-20
2022/03/13 04:22:12;;;;;;;9.35;6.85;;;;;;;;;;5079736;28;20248;-20
2022/03/13 04:24:39;;;;;;;8.13;6.85;;;;;;;;;;5072518;28;20233;-20
2022/03/13 04:27:06;;;;;;;8.95;7.72;;;;;;;;;;5072732;28;20847;-20
2022/03/13 04:29:34;;;;;;;10.23;7.70;;;;;;;;;;5073892;28;20219;-20
2022/03/13 04:32:05;;;;;;;10.85;7.15;;;;;;;;;;5084888;28;20240;-20
2022/03/13 04:34:32;;;;;;;14.50;7.50;;;;;;;;;;5079476;28;20229;-20
2022/03/13 04:37:00;;;;;;;10.00;7.15;;;;;;;;;;5072038;28;20221;-20
2022/03/13 04:39:27;;;;;;;9.60;7.68;;;;;;;;;;5072424;28;20226;-20
2022/03/13 04:41:54;;;;;;;9.63;7.30;;;;;;;;;;5074056;28;20229;-19
2022/03/13 04:44:22;;;;;;;8.77;7.05;;;;;;;;;;5078478;28;20239;-20
2022/03/13 04:46:49;;;;;;;12.02;6.85;;;;;;;;;;5073064;28;20620;-20
2022/03/13 04:49:16;;;;;;;9.77;7.50;;;;;;;;;;5074193;28;20222;-20
2022/03/13 04:51:43;;;;;;;8.32;6.93;;;;;;;;;;5076513;28;20237;-20
2022/03/13 04:54:11;;;;;;;9.23;7.40;;;;;;;;;;5071018;28;20213;-19
2022/03/13 04:56:38;;;;;;;8.95;7.30;;;;;;;;;;5071564;28;20233;-19
2022/03/13 04:59:07;;;;;;;10.95;7.40;;;;;;;;;;5069679;28;20228;-19
2022/03/13 05:01:34;;;;;;;9.05;6.85;;;;;;;;;;5079543;28;20687;-19
2022/03/13 05:04:01;;;;;;;9.90;7.55;;;;;;;;;;5089899;28;21006;-19
2022/03/13 05:06:28;;;;;;;8.60;7.38;;;;;;;;;;5075244;28;20708;-20
2022/03/13 05:08:55;;;;;;;7.85;6.80;;;;;;;;;;5070093;28;20227;-20
2022/03/13 05:11:22;;;;;;;8.60;7.03;;;;;;;;;;5072316;28;20272;-20
2022/03/13 05:13:49;;;;;;;7.68;6.88;;;;;;;;;;5071518;28;20241;-20
2022/03/13 05:16:16;;;;;;;10.93;7.35;;;;;;;;;;5071735;28;20723;-20
2022/03/13 05:18:43;;;;;;;8.90;7.13;;;;;;;;;;5071390;28;20255;-19
2022/03/13 05:21:10;;;;;;;8.98;7.10;;;;;;;;;;5077189;28;20233;-20
2022/03/13 05:23:37;;;;;;;10.63;7.32;;;;;;;;;;5071556;28;20371;-19
2022/03/13 05:26:04;;;;;;;9.73;6.93;;;;;;;;;;5071238;28;20234;-20
2022/03/13 05:28:32;;;;;;;9.18;7.25;;;;;;;;;;5071914;28;20239;-19
2022/03/13 05:30:59;;;;;;;9.27;7.22;;;;;;;;;;5071689;28;20236;-20
2022/03/13 05:33:26;;;;;;;8.63;7.05;;;;;;;;;;5070011;28;20241;-20
2022/03/13 05:35:55;;;;;;;10.15;6.90;;;;;;;;;;5071616;28;20233;-20
2022/03/13 05:38:21;;;;;;;8.02;6.90;;;;;;;;;;5051356;28;20361;-19
2022/03/13 05:40:48;;;;;;;8.93;6.95;;;;;;;;;;5072071;28;20225;-20
2022/03/13 05:43:15;;;;;;;9.52;6.60;;;;;;;;;;5084994;28;20233;-19
2022/03/13 05:45:43;;;;;;;9.02;7.22;;;;;;;;;;5071401;28;20229;-20
2022/03/13 05:48:10;;;;;;;9.43;7.13;;;;;;;;;;5071714;28;20994;-20
2022/03/13 05:50:37;;;;;;;7.60;6.13;;;;;;;;;;5071939;28;20240;-20
2022/03/13 05:53:04;;;;;;;9.63;7.38;;;;;;;;;;5071795;28;20241;-19
2022/03/13 05:55:31;;;;;;;8.48;6.75;;;;;;;;;;5071513;28;20328;-20
2022/03/13 05:57:58;;;;;;;9.32;6.70;;;;;;;;;;5070008;28;20225;-20
2022/03/13 06:00:25;;;;;;;10.15;6.53;;;;;;;;;;5070960;28;20237;-19
2022/03/13 06:02:52;;;;;;;9.05;6.85;;;;;;;;;;5070254;28;20232;-20
2022/03/13 06:05:19;;;;;;;7.95;6.60;;;;;;;;;;5071399;28;20250;-20
2022/03/13 06:07:46;;;;;;;9.43;6.35;;;;;;;;;;5071323;28;20225;-19
2022/03/13 06:10:20;;;;;;;7.40;6.05;;;;;;;;;;5073777;28;20217;-19
2022/03/13 06:12:47;;;;;;;8.77;6.40;;;;;;;;;;5088566;28;20993;-19
2022/03/13 06:15:14;;;;;;;8.50;6.50;;;;;;;;;;5074257;28;20235;-20
2022/03/13 06:17:42;;;;;;;7.40;6.13;;;;;;;;;;5074686;28;20228;-19
2022/03/13 06:20:10;;;;;;;10.98;6.68;;;;;;;;;;5077901;28;20354;-20
2022/03/13 06:22:37;;;;;;;6.65;5.70;;;;;;;;;;5074573;28;20245;-20
2022/03/13 06:25:04;;;;;;;6.70;5.93;;;;;;;;;;5073922;28;20230;-20
2022/03/13 06:27:31;;;;;;;7.18;5.88;;;;;;;;;;5074090;28;20703;-20
2022/03/13 06:30:00;;;;;;;6.57;5.78;;;;;;;;;;5075738;28;20253;-20
2022/03/13 06:32:28;;;;;;;7.22;5.55;;;;;;;;;;5092228;28;20231;-19
2022/03/13 06:34:55;;;;;;;7.88;5.38;;;;;;;;;;5087480;28;20704;-20
2022/03/13 06:37:22;;;;;;;6.40;5.28;;;;;;;;;;5094483;28;20891;-19
2022/03/13 06:39:50;;;;;;;6.55;5.82;;;;;;;;;;5093660;28;20217;-19
2022/03/13 06:42:18;;;;;;;7.97;5.68;;;;;;;;;;5090240;28;20239;-20
2022/03/13 06:44:45;;;;;;;5.35;4.75;;;;;;;;;;5094337;28;20232;-20
2022/03/13 06:47:13;;;;;;;6.13;5.10;;;;;;;;;;5059237;28;21006;-20
2022/03/13 06:49:41;;;;;;;7.18;5.47;;;;;;;;;;5059914;28;20222;-20
2022/03/13 06:52:08;;;;;;;7.82;5.38;;;;;;;;;;5087580;28;20289;-20
2022/03/13 06:54:35;;;;;;;6.60;5.05;;;;;;;;;;5073948;28;20245;-20
2022/03/13 06:57:02;;;;;;;5.95;5.35;;;;;;;;;;5084326;28;20696;-19
2022/03/13 06:59:29;;;;;;;6.40;5.28;;;;;;;;;;5073947;28;20240;-19
2022/03/13 07:01:56;;;;;;;6.07;4.93;;;;;;;;;;5073929;28;20253;-20
2022/03/13 07:04:23;;;;;;;6.15;4.57;;;;;;;;;;5073696;28;20223;-19
2022/03/13 07:06:50;;;;;;;6.32;5.13;;;;;;;;;;5090116;28;20320;-19
2022/03/13 07:09:17;;;;;;;7.45;5.45;;;;;;;;;;5075198;28;20260;-19
2022/03/13 07:11:49;;;;;;;7.25;5.38;;;;;;;;;;5090972;28;21042;-19
2022/03/13 07:14:17;;;;;;;7.25;5.47;;;;;;;;;;5094195;28;20237;-20
2022/03/13 07:16:44;;;;;;;5.85;5.22;;;;;;;;;;5077697;28;20213;-20
2022/03/13 07:19:11;;;;;;;5.75;5.15;;;;;;;;;;5073153;28;20613;-20
2022/03/13 07:21:38;;;;;;;5.57;4.80;;;;;;;;;;5071942;28;20241;-20
2022/03/13 07:24:05;;;;;;;6.90;5.65;;;;;;;;;;5073751;28;20213;-20
2022/03/13 07:26:32;;;;;;;6.32;5.05;;;;;;;;;;5074180;28;20236;-20
2022/03/13 07:29:02;;;;;;;5.88;4.93;;;;;;;;;;5073186;28;20214;-20
2022/03/13 07:31:29;;;;;;;6.70;5.22;;;;;;;;;;5074957;28;20231;-19
2022/03/13 07:33:56;;;;;;;6.88;5.75;;;;;;;;;;5089857;28;20247;-20
2022/03/13 07:36:23;;;;;;;5.85;4.85;;;;;;;;;;5080828;28;20228;-20
2022/03/13 07:38:50;;;;;;;9.32;5.55;;;;;;;;;;5076851;28;20727;-20
2022/03/13 07:41:17;;;;;;;6.70;5.13;;;;;;;;;;5073527;28;20237;-20
2022/03/13 07:43:44;;;;;;;6.18;5.57;;;;;;;;;;5072665;28;21083;-20
2022/03/13 07:46:11;;;;;;;6.32;5.40;;;;;;;;;;5070367;28;20244;-19
2022/03/13 07:48:38;;;;;;;5.85;4.97;;;;;;;;;;5070007;28;21034;-20
2022/03/13 07:51:07;;;;;;;6.22;5.38;;;;;;;;;;5069502;28;20606;-19
2022/03/13 07:53:34;;;;;;;6.60;5.60;;;;;;;;;;5067371;28;20241;-20
2022/03/13 07:56:01;;;;;;;6.75;5.72;;;;;;;;;;5075192;28;20228;-20
2022/03/13 07:58:29;;;;;;;6.68;5.30;;;;;;;;;;5069785;28;20324;-20
2022/03/13 08:00:57;;;;;;;6.53;5.10;;;;;;;;;;5072339;28;20230;-20
2022/03/13 08:03:34;;;;;;;7.68;5.40;;;;;;;;;;5071226;28;20233;-20
2022/03/13 08:06:02;;;;;;;8.30;5.03;;;;;;;;;;5075394;28;20221;-20
2022/03/13 08:08:29;;;;;;;13.43;6.78;;;;;;;;;;5070434;28;20237;-20
2022/03/13 08:10:56;;;;;;;12.30;6.72;;;;;;;;;;5083866;28;20233;-20
2022/03/13 08:13:23;;;;;;;10.85;6.28;;;;;;;;;;5075036;28;20247;-20
2022/03/13 08:15:50;;;;;;;15.75;6.80;;;;;;;;;;5074933;28;20228;-19
2022/03/13 08:18:17;;;;;;;8.80;6.05;;;;;;;;;;5075516;28;20232;-20
2022/03/13 08:20:44;;;;;;;10.60;6.55;;;;;;;;;;5070606;28;20229;-20
2022/03/13 08:23:11;;;;;;;9.32;6.38;;;;;;;;;;5083981;28;20244;-19
2022/03/13 08:25:38;;;;;;;8.70;6.60;;;;;;;;;;5080926;28;20229;-20
2022/03/13 08:28:06;;;;;;;7.78;6.75;;;;;;;;;;5083683;28;20237;-19
2022/03/13 08:30:33;;;;;;;12.88;6.60;;;;;;;;;;5070239;28;20226;-20
2022/03/13 08:33:00;;;;;;;17.48;6.53;;;;;;;;;;5070679;28;20237;-20
2022/03/13 08:35:28;;;;;;;22.00;7.00;;;;;;;;;;5075209;28;20897;-20
2022/03/13 08:37:55;;;;;;;20.00;7.13;;;;;;;;;;5077096;28;20463;-20
2022/03/13 08:40:25;;;;;;;13.88;7.20;;;;;;;;;;5091676;28;20232;-20
2022/03/13 08:42:52;;;;;;;17.00;6.85;;;;;;;;;;5080261;28;20322;-20
2022/03/13 08:45:18;;;;;;;10.65;6.18;;;;;;;;;;5080995;28;20230;-20
2022/03/13 08:47:47;;;;;;;11.07;7.15;;;;;;;;;;5072650;28;20284;-20
2022/03/13 08:50:15;;;;;;;13.80;7.00;;;;;;;;;;5082760;28;20231;-20
2022/03/13 08:52:42;;;;;;;12.27;6.82;;;;;;;;;;5079677;28;20245;-20
2022/03/13 08:55:13;;;;;;;15.93;7.70;;;;;;;;;;5077058;28;20589;-20
2022/03/13 08:57:41;;;;;;;13.60;7.63;;;;;;;;;;5081107;28;20322;-20
2022/03/13 09:00:10;;;;;;;20.13;9.35;;;;;;;;;;5072167;28;20705;-20
2022/03/13 09:02:37;;;;;;;15.60;10.32;;;;;;;;;;5082599;28;20423;-20
2022/03/13 09:05:04;;;;;;;18.98;10.23;;;;;;;;;;5087446;28;20791;-20
2022/03/13 09:07:31;;;;;;;15.98;8.77;;;;;;;;;;5087666;28;21006;-20
2022/03/13 09:09:58;;;;;;;12.35;8.93;;;;;;;;;;5070608;28;20706;-20
2022/03/13 09:12:25;;;;;;;16.00;8.65;;;;;;;;;;5089801;28;21075;-19
2022/03/13 09:14:52;;;;;;;13.27;8.55;;;;;;;;;;5090380;28;20232;-19
2022/03/13 09:17:19;;;;;;;11.02;8.30;;;;;;;;;;5071763;28;20316;-19
2022/03/13 09:19:46;;;;;;;11.35;8.38;;;;;;;;;;5071574;28;20417;-20
2022/03/13 09:22:14;;;;;;;10.35;7.95;;;;;;;;;;5071327;28;20492;-21
2022/03/13 09:24:41;;;;;;;16.15;9.60;;;;;;;;;;5071618;28;20720;-20
2022/03/13 09:27:08;;;;;;;13.43;9.75;;;;;;;;;;5082101;28;20902;-20
2022/03/13 09:29:35;;;;;;;12.13;8.85;;;;;;;;;;5072709;28;20229;-20
2022/03/13 09:32:02;;;;;;;15.20;9.20;;;;;;;;;;5071180;28;20424;-19
2022/03/13 09:34:29;;;;;;;12.15;8.80;;;;;;;;;;5071050;28;20279;-20
2022/03/13 09:36:56;;;;;;;13.40;8.70;;;;;;;;;;5080041;28;20213;-20
2022/03/13 09:39:25;;;;;;;12.68;8.07;;;;;;;;;;5071458;28;20225;-20
2022/03/13 09:41:52;;;;;;;12.32;8.32;;;;;;;;;;5082295;28;20445;-20
2022/03/13 09:44:19;;;;;;;11.20;7.78;;;;;;;;;;5071935;28;20232;-20
2022/03/13 09:46:46;;;;;;;12.48;7.65;;;;;;;;;;5075447;28;20236;-20
2022/03/13 09:49:14;;;;;;;10.57;7.32;;;;;;;;;;5075141;28;20332;-20
2022/03/13 09:51:41;;;;;;;12.18;7.50;;;;;;;;;;5089075;28;20240;-20
2022/03/13 09:54:08;;;;;;;12.85;7.22;;;;;;;;;;5077828;28;20229;-21
2022/03/13 09:56:38;;;;;;;9.68;6.70;;;;;;;;;;5080496;28;20220;-21
2022/03/13 09:59:06;;;;;;;13.18;7.47;;;;;;;;;;5095221;28;20241;-20
2022/03/13 10:01:33;;;;;;;9.48;6.05;;;;;;;;;;5089992;28;20232;-20
2022/03/13 10:04:00;;;;;;;29.92;6.95;;;;;;;;;;5086525;28;20264;-20
2022/03/13 10:06:28;;;;;;;9.65;6.25;;;;;;;;;;5084090;28;20217;-21
2022/03/13 10:08:55;;;;;;;9.00;6.50;;;;;;;;;;5074434;28;20411;-20
2022/03/13 10:11:22;;;;;;;15.75;7.38;;;;;;;;;;5072898;28;20226;-20
2022/03/13 10:13:51;;;;;;;12.95;7.78;;;;;;;;;;5068787;28;20272;-20
2022/03/13 10:16:19;;;;;;;12.90;7.75;;;;;;;;;;5069808;28;20232;-21
2022/03/13 10:18:46;;;;;;;10.98;7.25;;;;;;;;;;5069048;28;20261;-19
2022/03/13 10:21:13;;;;;;;10.25;7.15;;;;;;;;;;5070331;28;20229;-19
2022/03/13 10:23:40;;;;;;;9.82;7.32;;;;;;;;;;5069863;28;20241;-19
2022/03/13 10:26:07;;;;;;;12.45;7.10;;;;;;;;;;5070258;28;20229;-20
2022/03/13 10:28:34;;;;;;;9.25;6.47;;;;;;;;;;5070977;28;21189;-21
2022/03/13 10:31:01;;;;;;;8.55;7.05;;;;;;;;;;5069298;28;20417;-19
2022/03/13 10:33:48;;;;;;;15.05;7.10;;;;;;;;;;5067454;28;20445;-20
2022/03/13 10:36:15;;;;;;;11.13;7.47;;;;;;;;;;5070808;28;20918;-20
2022/03/13 10:38:42;;;;;;;11.27;6.80;;;;;;;;;;5073600;28;20417;-21
2022/03/13 10:41:10;;;;;;;15.30;7.03;;;;;;;;;;5076752;28;20732;-20
2022/03/13 10:43:39;;;;;;;13.32;7.05;;;;;;;;;;5074038;28;20242;-20
2022/03/13 10:46:07;;;;;;;12.77;7.22;;;;;;;;;;5076068;28;20618;-20
2022/03/13 10:48:36;;;;;;;9.00;7.28;;;;;;;;;;5079834;28;20256;-20
2022/03/13 10:51:03;;;;;;;16.35;7.22;;;;;;;;;;5080124;28;20217;-20
2022/03/13 10:53:31;;;;;;;9.93;6.97;;;;;;;;;;5094126;28;20233;-20
2022/03/13 10:55:58;;;;;;;14.75;7.20;;;;;;;;;;5092360;28;20736;-21
2022/03/13 10:58:25;;;;;;;11.40;6.80;;;;;;;;;;5090120;28;20231;-20
2022/03/13 11:00:52;;;;;;;11.93;7.43;;;;;;;;;;5078697;28;20213;-20
2022/03/13 11:03:19;;;;;;;9.63;7.40;;;;;;;;;;5093127;28;20209;-21
2022/03/13 11:05:49;;;;;;;11.13;7.32;;;;;;;;;;5085154;28;20229;-20
2022/03/13 11:08:16;;;;;;;11.80;7.80;;;;;;;;;;5081577;28;20217;-20
2022/03/13 11:10:43;;;;;;;10.45;7.85;;;;;;;;;;5080993;28;21053;-20
2022/03/13 11:13:17;;;;;;;10.98;7.65;;;;;;;;;;5093993;28;20225;-20
2022/03/13 11:15:44;;;;;;;11.20;7.45;;;;;;;;;;5087355;28;20221;-20
2022/03/13 11:18:11;;;;;;;11.73;7.63;;;;;;;;;;5073921;28;20230;-19
2022/03/13 11:20:39;;;;;;;10.80;7.70;;;;;;;;;;5073276;28;20240;-20
2022/03/13 11:23:08;;;;;;;9.65;7.97;;;;;;;;;;5073030;28;20252;-20
2022/03/13 11:25:35;;;;;;;11.43;8.05;;;;;;;;;;5073362;28;20218;-20
2022/03/13 11:28:02;;;;;;;8.85;7.70;;;;;;;;;;5088301;28;20615;-20
2022/03/13 11:30:29;;;;;;;8.70;7.45;;;;;;;;;;5090091;28;20227;-21
2022/03/13 11:32:57;;;;;;;10.25;7.68;;;;;;;;;;5073051;28;21023;-21
2022/03/13 11:35:25;;;;;;;9.30;7.03;;;;;;;;;;5073318;28;20263;-20
2022/03/13 11:37:52;;;;;;;12.95;7.63;;;;;;;;;;5087725;28;20544;-20
2022/03/13 11:40:19;;;;;;;8.75;7.13;;;;;;;;;;5088503;28;20241;-20
2022/03/13 11:42:47;;;;;;;8.45;7.30;;;;;;;;;;5072875;28;20226;-21
2022/03/13 11:45:15;;;;;;;10.88;7.50;;;;;;;;;;5075816;28;20239;-20
2022/03/13 11:47:42;;;;;;;9.25;7.50;;;;;;;;;;5073580;28;20229;-19
2022/03/13 11:50:09;;;;;;;8.93;7.40;;;;;;;;;;5072965;28;20718;-20
2022/03/13 11:52:36;;;;;;;11.95;7.75;;;;;;;;;;5073032;28;20599;-20
2022/03/13 11:55:04;;;;;;;10.38;7.10;;;;;;;;;;5074319;28;20243;-20
2022/03/13 11:57:31;;;;;;;9.35;7.65;;;;;;;;;;5082350;28;20220;-21
2022/03/13 11:59:58;;;;;;;10.68;8.10;;;;;;;;;;5072924;28;20233;-20
2022/03/13 12:02:25;;;;;;;8.68;7.28;;;;;;;;;;5073086;28;20685;-20
2022/03/13 12:04:52;;;;;;;11.55;8.23;;;;;;;;;;5076188;28;20238;-20
2022/03/13 12:07:19;;;;;;;9.68;7.53;;;;;;;;;;5083460;28;20230;-20
2022/03/13 12:09:46;;;;;;;10.27;7.43;;;;;;;;;;5072971;28;20235;-20
2022/03/13 12:12:14;;;;;;;8.10;7.25;;;;;;;;;;5093158;28;20225;-20
2022/03/13 12:14:41;;;;;;;10.85;7.25;;;;;;;;;;5091333;28;20236;-20
2022/03/13 12:17:10;;;;;;;11.13;7.63;;;;;;;;;;5080518;28;20708;-20
2022/03/13 12:19:40;;;;;;;9.10;7.80;;;;;;;;;;5092975;28;20237;-21
2022/03/13 12:22:07;;;;;;;9.63;7.40;;;;;;;;;;5072261;28;20233;-20
2022/03/13 12:24:34;;;;;;;10.30;6.55;;;;;;;;;;5072004;28;20225;-20
2022/03/13 12:27:07;;;;;;;9.00;7.15;;;;;;;;;;5082908;28;20299;-21
2022/03/13 12:29:34;;;;;;;9.32;7.40;;;;;;;;;;5072582;28;20251;-19
2022/03/13 12:32:01;;;;;;;9.50;7.20;;;;;;;;;;5071995;28;20953;-19
2022/03/13 12:34:29;;;;;;;11.15;6.88;;;;;;;;;;5074726;28;20599;-20
2022/03/13 12:37:01;;;;;;;9.45;7.20;;;;;;;;;;5091948;28;20225;-19
2022/03/13 12:39:28;;;;;;;10.20;7.30;;;;;;;;;;5082103;28;21240;-20
2022/03/13 12:41:55;;;;;;;8.82;7.18;;;;;;;;;;5078906;28;20320;-20
2022/03/13 12:44:22;;;;;;;8.32;6.75;;;;;;;;;;5072322;28;20228;-21
2022/03/13 12:46:51;;;;;;;9.40;7.18;;;;;;;;;;5074088;28;20734;-21
2022/03/13 12:49:20;;;;;;;8.20;6.65;;;;;;;;;;5084360;28;21109;-20
2022/03/13 12:51:47;;;;;;;10.13;6.53;;;;;;;;;;5076354;28;20222;-20
2022/03/13 12:54:14;;;;;;;9.85;7.30;;;;;;;;;;5073085;28;20237;-20
2022/03/13 12:56:44;;;;;;;8.57;6.32;;;;;;;;;;5075366;28;20612;-19
2022/03/13 12:59:11;;;;;;;8.95;5.97;;;;;;;;;;5070428;28;20229;-21
2022/03/13 13:01:38;;;;;;;8.75;5.68;;;;;;;;;;5073468;28;20236;-20
2022/03/13 13:04:06;;;;;;;10.75;7.90;;;;;;;;;;5082306;28;20460;-20
2022/03/13 13:06:36;;;;;;;14.15;9.02;;;;;;;;;;5078412;28;20239;-20
2022/03/13 13:09:03;;;;;;;13.35;8.82;;;;;;;;;;5072014;28;20241;-20
2022/03/13 13:11:30;;;;;;;12.18;8.50;;;;;;;;;;5089329;28;20320;-20
2022/03/13 13:13:57;;;;;;;14.70;8.52;;;;;;;;;;5091676;28;20232;-20
2022/03/13 13:16:24;;;;;;;13.13;7.88;;;;;;;;;;5077925;28;20228;-20
2022/03/13 13:18:51;;;;;;;14.25;8.15;;;;;;;;;;5070965;28;20608;-20
2022/03/13 13:21:18;;;;;;;12.48;8.27;;;;;;;;;;5070769;28;20266;-21
2022/03/13 13:23:45;;;;;;;11.18;7.65;;;;;;;;;;5070250;28;20239;-21
2022/03/13 13:26:12;;;;;;;10.02;8.05;;;;;;;;;;5072044;28;20225;-20
2022/03/13 13:28:39;;;;;;;8.38;6.95;;;;;;;;;;5071547;28;20225;-21
2022/03/13 13:31:06;;;;;;;10.90;7.50;;;;;;;;;;5071710;28;20216;-20
2022/03/13 13:33:33;;;;;;;8.70;7.18;;;;;;;;;;5071059;28;20295;-20
2022/03/13 13:36:02;;;;;;;8.35;6.78;;;;;;;;;;5076880;28;20233;-21
2022/03/13 13:38:31;;;;;;;11.07;7.35;;;;;;;;;;5091586;28;20612;-20
2022/03/13 13:40:58;;;;;;;8.52;6.82;;;;;;;;;;5090850;28;20223;-21
2022/03/13 13:43:27;;;;;;;7.63;5.72;;;;;;;;;;5086350;28;22969;-21
2022/03/13 13:45:58;;;;;;;9.80;6.88;;;;;;;;;;5066837;28;20224;-20
2022/03/13 13:48:25;;;;;;;8.82;6.50;;;;;;;;;;5091691;28;20224;-21
2022/03/13 13:50:52;;;;;;;7.60;6.43;;;;;;;;;;5091445;28;20235;-21
2022/03/13 13:53:20;;;;;;;9.25;6.28;;;;;;;;;;5091725;28;20208;-20
2022/03/13 13:55:47;;;;;;;7.22;5.97;;;;;;;;;;5080239;28;20232;-20
2022/03/13 13:58:15;;;;;;;7.07;6.18;;;;;;;;;;5091728;28;20234;-20
2022/03/13 14:00:42;;;;;;;7.68;6.45;;;;;;;;;;5085845;28;20229;-20
2022/03/13 14:03:10;;;;;;;7.22;6.25;;;;;;;;;;5070959;28;20331;-21
2022/03/13 14:05:37;;;;;;;8.80;5.70;;;;;;;;;;5071847;28;20668;-20
2022/03/13 14:08:19;;;;;;;6.68;5.13;;;;;;;;;;5086851;28;20260;-21
2022/03/13 14:10:46;;;;;;;8.80;6.05;;;;;;;;;;5079379;28;20229;-21
2022/03/13 14:13:13;;;;;;;7.60;5.68;;;;;;;;;;5091111;28;20232;-21
2022/03/13 14:15:40;;;;;;;7.63;5.72;;;;;;;;;;5085381;28;20229;-21
2022/03/13 14:18:08;;;;;;;9.82;5.60;;;;;;;;;;5074384;28;20240;-21
2022/03/13 14:20:35;;;;;;;6.15;5.38;;;;;;;;;;5070925;28;20669;-21
2022/03/13 14:23:01;;;;;;;6.10;4.65;;;;;;;;;;5070345;28;20978;-20
2022/03/13 14:25:29;;;;;;;7.38;6.00;;;;;;;;;;5076927;28;20233;-21
2022/03/13 14:27:56;;;;;;;6.10;5.00;;;;;;;;;;5074389;28;20236;-20
2022/03/13 14:30:23;;;;;;;6.15;5.28;;;;;;;;;;5089082;28;20213;-20
2022/03/13 14:32:50;;;;;;;7.05;5.40;;;;;;;;;;5074088;28;20233;-20
2022/03/13 14:35:18;;;;;;;6.82;5.05;;;;;;;;;;5074224;28;20812;-21
2022/03/13 14:37:45;;;;;;;8.50;5.07;;;;;;;;;;5092654;28;20244;-21
2022/03/13 14:40:32;;;;;;;7.15;4.60;;;;;;;;;;5080860;28;20244;-20